createdAt,value
2018-12-10T00:00:12.467Z,97747.16
2018-12-10T00:02:42.986Z,97741.94
2018-12-10T00:05:11.626Z,97745.59
2018-12-10T00:07:40.194Z,97746.26
2018-12-10T00:10:08.738Z,97748.23
2018-12-10T00:12:37.312Z,97755.17
2018-12-10T00:15:06.138Z,97762.34
2018-12-10T00:17:34.680Z,97764.70
2018-12-10T00:20:03.381Z,97768.55
2018-12-10T00:22:31.960Z,97770.83
2018-12-10T00:25:00.497Z,97778.62
2018-12-10T00:27:29.302Z,97784.34
2018-12-10T00:29:57.845Z,97788.65
2018-12-10T00:32:26.434Z,97793.75
2018-12-10T00:34:54.994Z,97801.00
2018-12-10T00:37:23.470Z,97788.52
2018-12-10T00:39:51.959Z,97802.03
2018-12-10T00:42:20.418Z,97807.91
2018-12-10T00:44:48.963Z,97802.81
2018-12-10T00:47:17.507Z,97801.48
2018-12-10T00:49:46.056Z,97803.22
2018-12-10T00:52:14.532Z,97809.83
2018-12-10T00:54:43.042Z,97822.88
2018-12-10T00:57:11.647Z,97823.75
2018-12-10T00:59:40.203Z,97821.84
2018-12-10T01:02:08.756Z,97828.84
2018-12-10T01:04:37.312Z,97834.57
2018-12-10T01:07:06.645Z,97847.45
2018-12-10T01:09:35.135Z,97849.84
2018-12-10T01:12:03.714Z,97845.54
2018-12-10T01:14:32.345Z,97861.53
2018-12-10T01:17:00.878Z,97868.92
2018-12-10T01:19:29.399Z,97873.95
2018-12-10T01:21:57.980Z,97882.61
2018-12-10T01:24:26.562Z,97885.95
2018-12-10T01:26:55.154Z,97899.47
2018-12-10T01:29:23.743Z,97903.04
2018-12-10T01:31:52.323Z,97912.13
2018-12-10T01:34:20.790Z,97907.09
2018-12-10T01:36:49.251Z,97911.36
2018-12-10T01:39:17.850Z,97919.16
2018-12-10T01:41:46.378Z,97924.73
2018-12-10T01:44:15.040Z,97916.77
2018-12-10T01:46:43.559Z,97919.46
2018-12-10T01:49:12.138Z,97918.84
2018-12-10T01:51:40.729Z,97925.49
2018-12-10T01:54:09.312Z,97926.98
2018-12-10T01:56:37.784Z,97924.14
2018-12-10T01:59:06.302Z,97932.80
2018-12-10T02:01:34.904Z,97930.41
2018-12-10T02:04:03.527Z,97930.23
2018-12-10T02:06:32.812Z,97936.62
2018-12-10T02:09:01.403Z,97939.62
2018-12-10T02:11:29.890Z,97943.44
2018-12-10T02:13:58.366Z,97937.41
2018-12-10T02:16:26.842Z,97935.44
2018-12-10T02:18:55.523Z,97937.41
2018-12-10T02:21:24.001Z,97938.52
2018-12-10T02:23:52.533Z,97932.88
2018-12-10T02:26:21.010Z,97935.02
2018-12-10T02:28:54.899Z,97941.22
2018-12-10T02:31:23.432Z,97942.76
2018-12-10T02:33:53.152Z,97948.27
2018-12-10T02:36:21.997Z,97950.64
2018-12-10T02:38:51.156Z,97952.72
2018-12-10T02:41:19.687Z,97956.77
2018-12-10T02:43:48.183Z,97964.62
2018-12-10T02:46:16.776Z,97970.76
2018-12-10T02:48:45.352Z,97972.42
2018-12-10T02:51:14.245Z,97981.09
2018-12-10T02:53:42.758Z,97965.34
2018-12-10T02:56:11.427Z,97972.31
2018-12-10T02:58:40.100Z,97972.31
2018-12-10T03:01:09.181Z,97977.78
2018-12-10T03:03:37.774Z,97974.22
2018-12-10T03:06:06.398Z,97968.81
2018-12-10T03:08:35.874Z,97974.84
2018-12-10T03:11:04.422Z,97968.19
2018-12-10T03:13:33.869Z,97980.00
2018-12-10T03:16:02.371Z,97980.63
2018-12-10T03:18:30.892Z,97991.55
2018-12-10T03:20:59.375Z,97991.42
2018-12-10T03:23:28.518Z,97999.86
2018-12-10T03:25:57.038Z,98005.76
2018-12-10T03:28:25.620Z,97997.89
2018-12-10T03:30:54.129Z,98004.27
2018-12-10T03:33:22.789Z,98019.77
2018-12-10T03:35:51.301Z,98023.52
2018-12-10T03:38:19.802Z,98027.27
2018-12-10T03:40:48.375Z,98029.86
2018-12-10T03:43:16.859Z,98029.00
2018-12-10T03:45:45.348Z,98050.77
2018-12-10T03:48:20.363Z,98044.41
2018-12-10T03:50:48.861Z,98045.76
2018-12-10T03:53:17.375Z,98043.30
2018-12-10T03:55:45.942Z,98042.48
2018-12-10T03:58:14.514Z,98037.33
2018-12-10T04:00:42.975Z,98050.56
2018-12-10T04:03:11.579Z,98059.89
2018-12-10T04:05:40.045Z,98052.73
2018-12-10T04:08:08.530Z,98052.23
2018-12-10T04:10:37.952Z,98060.72
2018-12-10T04:13:06.462Z,98057.14
2018-12-10T04:15:35.727Z,98062.66
2018-12-10T04:18:04.341Z,98045.00
2018-12-10T04:20:32.840Z,98066.96
2018-12-10T04:23:01.457Z,98070.52
2018-12-10T04:25:30.015Z,98072.91
2018-12-10T04:27:58.621Z,98083.61
2018-12-10T04:30:27.244Z,98084.12
2018-12-10T04:32:55.714Z,98087.92
2018-12-10T04:35:24.196Z,98086.22
2018-12-10T04:37:52.643Z,98090.87
2018-12-10T04:40:21.165Z,98091.90
2018-12-10T04:42:49.704Z,98098.09
2018-12-10T04:45:18.202Z,98096.09
2018-12-10T04:47:46.841Z,98093.33
2018-12-10T04:50:15.426Z,98092.53
2018-12-10T04:52:43.887Z,98094.59
2018-12-10T04:55:12.522Z,98099.99
2018-12-10T04:57:41.035Z,98103.80
2018-12-10T05:00:09.763Z,98107.97
2018-12-10T05:02:38.306Z,98104.27
2018-12-10T05:05:07.984Z,98104.34
2018-12-10T05:07:37.102Z,98115.61
2018-12-10T05:10:06.042Z,98114.01
2018-12-10T05:12:34.622Z,98112.61
2018-12-10T05:15:03.166Z,98116.80
2018-12-10T05:17:31.703Z,98114.99
2018-12-10T05:20:00.199Z,98118.79
2018-12-10T05:22:29.263Z,98122.59
2018-12-10T05:24:57.766Z,98128.59
2018-12-10T05:27:26.253Z,98133.79
2018-12-10T05:29:54.754Z,98131.86
2018-12-10T05:32:23.400Z,98142.94
2018-12-10T05:34:52.074Z,98146.06
2018-12-10T05:37:20.565Z,98149.22
2018-12-10T05:39:49.110Z,98161.66
2018-12-10T05:42:19.327Z,98157.02
2018-12-10T05:44:49.347Z,98158.59
2018-12-10T05:47:21.093Z,98162.16
2018-12-10T05:49:51.386Z,98159.56
2018-12-10T05:52:20.880Z,98166.46
2018-12-10T05:54:49.973Z,98164.27
2018-12-10T05:57:20.364Z,98156.66
2018-12-10T05:59:50.768Z,98161.31
2018-12-10T06:02:19.597Z,98162.64
2018-12-10T06:04:48.367Z,98163.86
2018-12-10T06:07:17.351Z,98172.56
2018-12-10T06:09:46.252Z,98158.45
2018-12-10T06:12:15.277Z,98175.25
2018-12-10T06:14:43.798Z,98176.38
2018-12-10T06:17:12.654Z,98180.44
2018-12-10T06:19:41.318Z,98177.86
2018-12-10T06:22:10.280Z,98183.30
2018-12-10T06:24:39.396Z,98181.23
2018-12-10T06:27:08.382Z,98186.43
2018-12-10T06:29:37.015Z,98190.36
2018-12-10T06:32:05.834Z,98188.75
2018-12-10T06:34:34.727Z,98197.11
2018-12-10T06:37:03.537Z,98194.86
2018-12-10T06:39:32.327Z,98195.16
2018-12-10T06:42:01.058Z,98208.06
2018-12-10T06:44:30.200Z,98213.76
2018-12-10T06:46:59.466Z,98216.25
2018-12-10T06:49:28.438Z,98222.91
2018-12-10T06:51:57.232Z,98224.77
2018-12-10T06:54:26.627Z,98225.05
2018-12-10T06:56:56.398Z,98228.77
2018-12-10T06:59:25.286Z,98234.13
2018-12-10T07:01:53.903Z,98245.27
2018-12-10T07:04:22.389Z,98243.28
2018-12-10T07:06:50.986Z,98258.56
2018-12-10T07:09:19.497Z,98250.45
2018-12-10T07:11:48.050Z,98255.37
2018-12-10T07:14:16.530Z,98259.81
2018-12-10T07:16:45.563Z,98259.77
2018-12-10T07:19:14.214Z,98263.58
2018-12-10T07:21:42.859Z,98264.17
2018-12-10T07:24:11.446Z,98264.08
2018-12-10T07:26:39.906Z,98270.66
2018-12-10T07:29:08.427Z,98274.92
2018-12-10T07:31:36.896Z,98276.23
2018-12-10T07:34:05.447Z,98280.75
2018-12-10T07:36:34.162Z,98283.83
2018-12-10T07:39:02.749Z,98279.31
2018-12-10T07:41:31.334Z,98285.13
2018-12-10T07:44:00.051Z,98275.77
2018-12-10T07:46:28.523Z,98285.09
2018-12-10T07:48:57.153Z,98291.08
2018-12-10T07:51:25.646Z,98291.28
2018-12-10T07:53:54.772Z,98300.99
2018-12-10T07:56:29.005Z,98305.16
2018-12-10T07:58:53.859Z,98303.27
2018-12-10T08:01:22.447Z,98303.16
2018-12-10T08:03:51.185Z,98309.35
2018-12-10T08:06:20.274Z,98308.59
2018-12-10T08:08:50.281Z,98316.66
2018-12-10T08:11:19.016Z,98316.33
2018-12-10T08:13:47.643Z,98316.33
2018-12-10T08:16:16.186Z,98315.53
2018-12-10T08:18:44.911Z,98323.84
2018-12-10T08:21:14.114Z,98327.95
2018-12-10T08:23:42.594Z,98322.19
2018-12-10T08:26:11.162Z,98320.81
2018-12-10T08:28:39.691Z,98311.45
2018-12-10T08:31:08.195Z,98326.59
2018-12-10T08:33:36.736Z,98321.44
2018-12-10T08:36:06.089Z,98323.95
2018-12-10T08:38:34.612Z,98323.20
2018-12-10T08:41:03.102Z,98341.17
2018-12-10T08:43:31.625Z,98329.30
2018-12-10T08:46:00.927Z,98336.97
2018-12-10T08:48:29.503Z,98350.94
2018-12-10T08:50:58.165Z,98343.54
2018-12-10T08:53:26.947Z,98355.00
2018-12-10T08:55:56.094Z,98353.51
2018-12-10T08:58:24.571Z,98363.63
2018-12-10T09:00:53.086Z,98368.77
2018-12-10T09:03:21.562Z,98360.68
2018-12-10T09:05:50.020Z,98362.37
2018-12-10T09:08:18.627Z,98345.58
2018-12-10T09:10:47.139Z,98348.20
2018-12-10T09:13:15.654Z,98365.27
2018-12-10T09:15:44.150Z,98359.38
2018-12-10T09:18:12.654Z,98362.02
2018-12-10T09:20:41.129Z,98369.16
2018-12-10T09:23:09.876Z,98361.86
2018-12-10T09:25:38.402Z,98367.03
2018-12-10T09:28:06.920Z,98367.89
2018-12-10T09:30:35.593Z,98372.20
2018-12-10T09:33:04.190Z,98371.63
2018-12-10T09:35:32.782Z,98376.03
2018-12-10T09:38:01.320Z,98368.53
2018-12-10T09:40:29.843Z,98376.70
2018-12-10T09:42:58.414Z,98375.95
2018-12-10T09:45:26.972Z,98380.71
2018-12-10T09:47:55.810Z,98379.38
2018-12-10T09:50:24.390Z,98380.82
2018-12-10T09:52:52.902Z,98370.19
2018-12-10T09:55:21.511Z,98368.45
2018-12-10T09:57:50.003Z,98364.42
2018-12-10T10:00:18.561Z,98370.75
2018-12-10T10:02:47.205Z,98378.38
2018-12-10T10:05:16.499Z,98365.47
2018-12-10T10:07:45.302Z,98355.61
2018-12-10T10:10:13.801Z,98372.50
2018-12-10T10:12:43.407Z,98375.69
2018-12-10T10:15:13.287Z,98377.64
2018-12-10T10:17:41.810Z,98396.28
2018-12-10T10:20:10.328Z,98387.11
2018-12-10T10:22:38.858Z,98385.31
2018-12-10T10:25:07.472Z,98395.41
2018-12-10T10:27:36.572Z,98392.84
2018-12-10T10:30:05.652Z,98390.94
2018-12-10T10:32:34.582Z,98389.30
2018-12-10T10:35:03.209Z,98382.47
2018-12-10T10:37:31.764Z,98389.16
2018-12-10T10:40:00.362Z,98392.23
2018-12-10T10:42:28.887Z,98394.21
2018-12-10T10:44:57.607Z,98382.59
2018-12-10T10:47:26.134Z,98393.84
2018-12-10T10:49:55.295Z,98398.91
2018-12-10T10:52:23.838Z,98393.27
2018-12-10T10:54:52.310Z,98395.06
2018-12-10T10:57:20.810Z,98401.57
2018-12-10T10:59:49.309Z,98401.80
2018-12-10T11:02:22.943Z,98391.25
2018-12-10T11:04:51.927Z,98401.15
2018-12-10T11:07:20.496Z,98407.94
2018-12-10T11:09:48.989Z,98402.23
2018-12-10T11:12:17.694Z,98392.65
2018-12-10T11:14:46.199Z,98388.11
2018-12-10T11:17:15.322Z,98385.52
2018-12-10T11:19:43.822Z,98383.30
2018-12-10T11:22:12.655Z,98386.92
2018-12-10T11:24:41.122Z,98381.45
2018-12-10T11:27:09.613Z,98381.59
2018-12-10T11:29:38.191Z,98381.40
2018-12-10T11:32:06.731Z,98383.66
2018-12-10T11:34:35.312Z,98383.52
2018-12-10T11:37:03.895Z,98393.67
2018-12-10T11:39:32.410Z,98380.01
2018-12-10T11:42:00.893Z,98386.59
2018-12-10T11:44:29.386Z,98372.13
2018-12-10T11:46:58.165Z,98364.20
2018-12-10T11:49:26.648Z,98372.99
2018-12-10T11:51:55.756Z,98379.41
2018-12-10T11:54:24.274Z,98376.02
2018-12-10T11:56:53.008Z,98376.36
2018-12-10T11:59:21.535Z,98383.48
2018-12-10T12:01:50.047Z,98361.86
2018-12-10T12:04:18.644Z,98374.94
2018-12-10T12:06:47.190Z,98365.70
2018-12-10T12:09:16.563Z,98363.06
2018-12-10T12:11:45.059Z,98360.40
2018-12-10T12:14:13.586Z,98361.14
2018-12-10T12:16:42.206Z,98354.30
2018-12-10T12:19:11.367Z,98354.91
2018-12-10T12:21:40.434Z,98353.30
2018-12-10T12:24:08.969Z,98353.50
2018-12-10T12:26:37.474Z,98350.23
2018-12-10T12:29:06.152Z,98361.29
2018-12-10T12:31:34.753Z,98352.84
2018-12-10T12:34:03.282Z,98344.44
2018-12-10T12:36:31.924Z,98343.61
2018-12-10T12:39:01.120Z,98344.31
2018-12-10T12:41:29.615Z,98361.47
2018-12-10T12:43:58.187Z,98349.11
2018-12-10T12:46:27.519Z,98340.52
2018-12-10T12:48:56.564Z,98341.72
2018-12-10T12:51:25.100Z,98345.61
2018-12-10T12:53:53.670Z,98330.80
2018-12-10T12:56:22.163Z,98344.41
2018-12-10T12:58:50.730Z,98346.51
2018-12-10T13:01:19.246Z,98336.38
2018-12-10T13:03:47.698Z,98348.72
2018-12-10T13:06:17.190Z,98336.61
2018-12-10T13:08:45.721Z,98338.16
2018-12-10T13:11:15.071Z,98332.91
2018-12-10T13:13:43.573Z,98342.05
2018-12-10T13:16:13.189Z,98352.00
2018-12-10T13:18:41.670Z,98340.86
2018-12-10T13:21:10.222Z,98339.69
2018-12-10T13:23:39.706Z,98335.27
2018-12-10T13:26:08.299Z,98345.98
2018-12-10T13:28:37.972Z,98345.06
2018-12-10T13:31:06.548Z,98351.27
2018-12-10T13:33:35.293Z,98359.52
2018-12-10T13:36:04.775Z,98355.24
2018-12-10T13:38:36.894Z,98350.69
2018-12-10T13:41:04.502Z,98347.49
2018-12-10T13:43:33.047Z,98341.11
2018-12-10T13:46:01.569Z,98343.31
2018-12-10T13:48:30.302Z,98342.22
2018-12-10T13:50:59.511Z,98340.47
2018-12-10T13:53:28.037Z,98338.56
2018-12-10T13:55:56.647Z,98335.45
2018-12-10T13:58:25.260Z,98339.62
2018-12-10T14:00:53.778Z,98341.72
2018-12-10T14:03:22.313Z,98333.10
2018-12-10T14:05:50.839Z,98334.95
2018-12-10T14:08:19.414Z,98331.50
2018-12-10T14:10:47.978Z,98332.00
2018-12-10T14:13:16.600Z,98345.64
2018-12-10T14:15:46.298Z,98348.59
2018-12-10T14:18:15.522Z,98343.98
2018-12-10T14:20:44.214Z,98346.48
2018-12-10T14:23:12.761Z,98349.44
2018-12-10T14:25:41.240Z,98350.54
2018-12-10T14:28:09.729Z,98344.23
2018-12-10T14:30:38.914Z,98344.97
2018-12-10T14:33:07.459Z,98341.27
2018-12-10T14:35:35.963Z,98337.20
2018-12-10T14:38:04.623Z,98342.77
2018-12-10T14:40:33.169Z,98342.11
2018-12-10T14:43:01.702Z,98323.42
2018-12-10T14:45:30.245Z,98325.57
2018-12-10T14:47:59.794Z,98323.16
2018-12-10T14:50:28.351Z,98328.87
2018-12-10T14:52:57.037Z,98333.90
2018-12-10T14:55:26.030Z,98333.05
2018-12-10T14:57:54.610Z,98331.70
2018-12-10T15:00:23.176Z,98331.03
2018-12-10T15:02:51.642Z,98328.84
2018-12-10T15:05:20.153Z,98335.81
2018-12-10T15:07:48.672Z,98328.46
2018-12-10T15:10:23.163Z,98326.35
2018-12-10T15:12:48.858Z,98319.98
2018-12-10T15:15:18.231Z,98318.94
2018-12-10T15:17:46.755Z,98326.66
2018-12-10T15:20:15.441Z,98331.94
2018-12-10T15:22:44.061Z,98346.70
2018-12-10T15:25:12.646Z,98337.00
2018-12-10T15:27:41.135Z,98338.81
2018-12-10T15:30:11.885Z,98328.85
2018-12-10T15:32:40.538Z,98343.88
2018-12-10T15:35:09.613Z,98348.01
2018-12-10T15:37:38.147Z,98346.91
2018-12-10T15:40:08.013Z,98342.19
2018-12-10T15:42:39.423Z,98340.89
2018-12-10T15:45:08.407Z,98336.28
2018-12-10T15:47:37.235Z,98322.73
2018-12-10T15:50:05.938Z,98317.48
2018-12-10T15:52:34.571Z,98335.44
2018-12-10T15:55:03.090Z,98336.41
2018-12-10T15:57:31.666Z,98323.95
2018-12-10T16:00:00.302Z,98339.16
2018-12-10T16:02:29.071Z,98342.86
2018-12-10T16:04:59.331Z,98346.24
2018-12-10T16:07:27.802Z,98340.49
2018-12-10T16:09:56.294Z,98329.69
2018-12-10T16:12:25.558Z,98338.55
2018-12-10T16:14:54.127Z,98335.50
2018-12-10T16:17:22.620Z,98323.30
2018-12-10T16:19:51.206Z,98325.20
2018-12-10T16:22:19.830Z,98326.80
2018-12-10T16:24:48.374Z,98319.19
2018-12-10T16:27:17.258Z,98322.19
2018-12-10T16:29:46.437Z,98325.57
2018-12-10T16:32:14.958Z,98325.62
2018-12-10T16:34:43.509Z,98315.70
2018-12-10T16:37:12.036Z,98311.20
2018-12-10T16:39:43.737Z,98307.75
2018-12-10T16:42:11.577Z,98317.96
2018-12-10T16:44:40.302Z,98318.77
2018-12-10T16:47:08.790Z,98315.69
2018-12-10T16:49:37.350Z,98311.93
2018-12-10T16:52:05.852Z,98325.79
2018-12-10T16:54:34.331Z,98324.50
2018-12-10T16:57:02.877Z,98328.48
2018-12-10T16:59:31.402Z,98328.85
2018-12-10T17:02:00.794Z,98342.86
2018-12-10T17:04:29.388Z,98338.98
2018-12-10T17:06:57.873Z,98325.73
2018-12-10T17:09:26.802Z,98337.33
2018-12-10T17:11:55.724Z,98330.95
2018-12-10T17:14:24.795Z,98328.21
2018-12-10T17:16:53.723Z,98329.31
2018-12-10T17:19:22.360Z,98336.92
2018-12-10T17:21:50.825Z,98346.61
2018-12-10T17:24:19.498Z,98359.84
2018-12-10T17:26:48.078Z,98364.13
2018-12-10T17:29:17.179Z,98358.45
2018-12-10T17:31:45.646Z,98357.48
2018-12-10T17:34:14.213Z,98364.06
2018-12-10T17:36:42.739Z,98366.63
2018-12-10T17:39:11.821Z,98375.11
2018-12-10T17:41:40.450Z,98373.67
2018-12-10T17:44:09.067Z,98377.45
2018-12-10T17:46:37.684Z,98392.07
2018-12-10T17:49:07.803Z,98394.08
2018-12-10T17:51:36.470Z,98407.76
2018-12-10T17:54:05.441Z,98399.05
2018-12-10T17:56:34.056Z,98387.77
2018-12-10T17:59:03.211Z,98387.24
2018-12-10T18:01:32.927Z,98389.85
2018-12-10T18:04:01.484Z,98385.97
2018-12-10T18:06:31.077Z,98388.12
2018-12-10T18:09:00.034Z,98391.94
2018-12-10T18:11:29.468Z,98389.52
2018-12-10T18:13:58.788Z,98400.61
2018-12-10T18:16:28.754Z,98405.35
2018-12-10T18:18:57.392Z,98403.77
2018-12-10T18:21:26.067Z,98398.08
2018-12-10T18:23:54.680Z,98404.92
2018-12-10T18:26:23.156Z,98401.69
2018-12-10T18:28:52.042Z,98402.42
2018-12-10T18:31:21.000Z,98388.31
2018-12-10T18:33:49.942Z,98389.86
2018-12-10T18:36:18.420Z,98392.30
2018-12-10T18:38:47.037Z,98389.94
2018-12-10T18:41:15.619Z,98396.91
2018-12-10T18:43:45.128Z,98404.05
2018-12-10T18:46:13.662Z,98403.81
2018-12-10T18:48:42.299Z,98394.41
2018-12-10T18:51:10.879Z,98396.36
2018-12-10T18:53:39.955Z,98392.06
2018-12-10T18:56:09.098Z,98396.70
2018-12-10T18:58:37.714Z,98391.54
2018-12-10T19:01:06.243Z,98387.81
2018-12-10T19:03:34.855Z,98381.02
2018-12-10T19:06:03.391Z,98394.15
2018-12-10T19:08:31.928Z,98387.61
2018-12-10T19:11:00.449Z,98386.52
2018-12-10T19:13:29.899Z,98392.54
2018-12-10T19:16:00.611Z,98388.70
2018-12-10T19:18:29.414Z,98397.30
2018-12-10T19:20:58.070Z,98398.75
2018-12-10T19:23:26.672Z,98403.41
2018-12-10T19:25:55.258Z,98391.17
2018-12-10T19:28:23.810Z,98390.50
2018-12-10T19:30:52.289Z,98381.44
2018-12-10T19:33:20.882Z,98389.50
2018-12-10T19:36:13.195Z,98390.81
2018-12-10T19:38:41.805Z,98383.88
2018-12-10T19:41:10.396Z,98387.09
2018-12-10T19:43:38.974Z,98387.58
2018-12-10T19:46:07.493Z,98380.67
2018-12-10T19:48:36.039Z,98388.50
2018-12-10T19:51:04.802Z,98388.27
2018-12-10T19:53:33.395Z,98389.94
2018-12-10T19:56:01.935Z,98398.65
2018-12-10T19:58:30.929Z,98387.16
2018-12-10T20:00:59.982Z,98390.56
2018-12-10T20:03:28.526Z,98393.80
2018-12-10T20:06:20.509Z,98397.45
2018-12-10T20:08:49.262Z,98391.97
2018-12-10T20:11:17.804Z,98390.02
2018-12-10T20:13:46.287Z,98391.39
2018-12-10T20:16:14.870Z,98394.34
2018-12-10T20:18:43.430Z,98387.61
2018-12-10T20:21:11.961Z,98396.27
2018-12-10T20:23:40.501Z,98390.11
2018-12-10T20:26:09.137Z,98391.60
2018-12-10T20:28:37.748Z,98397.88
2018-12-10T20:31:06.410Z,98403.61
2018-12-10T20:33:35.081Z,98403.09
2018-12-10T20:36:03.894Z,98414.31
2018-12-10T20:38:32.609Z,98417.00
2018-12-10T20:41:01.174Z,98415.48
2018-12-10T20:43:29.722Z,98409.44
2018-12-10T20:45:58.450Z,98415.09
2018-12-10T20:48:26.958Z,98417.52
2018-12-10T20:50:55.518Z,98430.55
2018-12-10T20:53:24.187Z,98427.82
2018-12-10T20:55:53.879Z,98432.86
2018-12-10T20:58:23.763Z,98427.80
2018-12-10T21:00:52.953Z,98424.27
2018-12-10T21:03:24.005Z,98425.41
2018-12-10T21:05:58.695Z,98422.80
2018-12-10T21:08:29.937Z,98415.28
2018-12-10T21:11:01.163Z,98429.11
2018-12-10T21:13:31.916Z,98427.73
2018-12-10T21:16:03.064Z,98426.95
2018-12-10T21:18:32.794Z,98424.52
2018-12-10T21:21:04.560Z,98433.47
2018-12-10T21:23:35.098Z,98434.55
2018-12-10T21:26:05.884Z,98431.47
2018-12-10T21:28:36.440Z,98430.95
2018-12-10T21:31:06.511Z,98430.69
2018-12-10T21:33:36.638Z,98431.47
2018-12-10T21:36:05.405Z,98427.97
2018-12-10T21:38:33.926Z,98429.28
2018-12-10T21:41:02.480Z,98434.12
2018-12-10T21:43:30.955Z,98430.89
2018-12-10T21:46:05.795Z,98429.72
2018-12-10T21:48:34.358Z,98427.42
2018-12-10T21:51:02.900Z,98423.17
2018-12-10T21:53:32.466Z,98422.08
2018-12-10T21:56:02.612Z,98433.70
2018-12-10T21:58:31.164Z,98424.98
2018-12-10T22:00:59.710Z,98420.73
2018-12-10T22:03:29.575Z,98413.20
2018-12-10T22:06:00.072Z,98416.66
2018-12-10T22:08:31.129Z,98426.18
2018-12-10T22:11:00.212Z,98417.95
2018-12-10T22:13:32.014Z,98421.77
2018-12-10T22:16:02.566Z,98425.09
2018-12-10T22:18:33.003Z,98435.51
2018-12-10T22:21:01.836Z,98433.19
2018-12-10T22:23:30.375Z,98425.35
2018-12-10T22:25:58.898Z,98422.80
2018-12-10T22:28:27.478Z,98420.80
2018-12-10T22:30:56.502Z,98401.05
2018-12-10T22:33:25.792Z,98402.84
2018-12-10T22:35:54.646Z,98403.04
2018-12-10T22:38:23.366Z,98409.75
2018-12-10T22:40:52.980Z,98404.36
2018-12-10T22:43:22.644Z,98405.02
2018-12-10T22:45:53.719Z,98403.67
2018-12-10T22:48:23.572Z,98406.28
2018-12-10T22:50:53.467Z,98407.14
2018-12-10T22:53:22.364Z,98407.05
2018-12-10T22:55:53.086Z,98414.63
2018-12-10T22:58:22.242Z,98419.19
2018-12-10T23:00:51.448Z,98414.05
2018-12-10T23:03:20.450Z,98421.86
2018-12-10T23:05:50.966Z,98423.23
2018-12-10T23:08:21.767Z,98416.17
2018-12-10T23:10:51.815Z,98418.04
2018-12-10T23:13:22.049Z,98416.66
2018-12-10T23:15:51.699Z,98404.81
2018-12-10T23:18:20.606Z,98411.05
2018-12-10T23:20:49.390Z,98407.80
2018-12-10T23:23:18.172Z,98404.09
2018-12-10T23:25:47.016Z,98405.39
2018-12-10T23:28:16.003Z,98411.81
2018-12-10T23:30:44.701Z,98401.80
2018-12-10T23:33:13.384Z,98402.89
2018-12-10T23:35:41.862Z,98400.52
2018-12-10T23:38:10.475Z,98398.65
2018-12-10T23:40:39.195Z,98402.75
2018-12-10T23:43:13.469Z,98405.13
2018-12-10T23:45:42.066Z,98404.23
2018-12-10T23:48:10.655Z,98406.01
2018-12-10T23:50:39.266Z,98399.20
2018-12-10T23:53:07.793Z,98403.51
2018-12-10T23:55:36.354Z,98400.30
2018-12-10T23:58:04.846Z,98395.99
